createdAt,value
2022-10-22T00:01:06.804Z,11.2
2022-10-22T00:03:08.679Z,11.1
2022-10-22T00:05:10.433Z,11.1
2022-10-22T00:07:12.194Z,11
2022-10-22T00:09:17.530Z,11
2022-10-22T00:13:21.089Z,11.1
2022-10-22T00:15:22.863Z,11.1
2022-10-22T00:17:26.295Z,11
2022-10-22T00:19:28.092Z,11
2022-10-22T00:21:29.870Z,11.1
2022-10-22T00:23:35.141Z,11
2022-10-22T00:25:36.955Z,10.8
2022-10-22T00:27:39.122Z,10.8
2022-10-22T00:28:41.388Z,10.9
2022-10-22T00:30:43.112Z,10.9
2022-10-22T00:32:44.929Z,10.9
2022-10-22T00:36:51.956Z,10.9
2022-10-22T00:38:53.740Z,10.8
2022-10-22T00:40:55.589Z,10.8
2022-10-22T00:42:57.353Z,10.8
2022-10-22T00:44:59.201Z,10.9
2022-10-22T00:49:02.825Z,10.7
2022-10-22T00:51:08.323Z,10.7
2022-10-22T00:53:09.879Z,10.7
2022-10-22T00:55:11.653Z,10.6
2022-10-22T00:57:13.463Z,10.8
2022-10-22T00:59:15.243Z,10.8
2022-10-22T01:01:17.207Z,10.9
2022-10-22T01:03:18.874Z,10.9
2022-10-22T01:05:24.332Z,11.1
2022-10-22T01:07:26.191Z,11.1
2022-10-22T01:09:27.954Z,11.1
2022-10-22T01:11:29.790Z,11.1
2022-10-22T01:13:31.581Z,11.2
2022-10-22T01:15:33.399Z,11.2
2022-10-22T01:17:35.115Z,11.1
2022-10-22T01:19:40.399Z,11
2022-10-22T01:21:42.152Z,11.1
2022-10-22T01:26:01.931Z,11
2022-10-22T01:36:13.829Z,11
2022-10-22T01:38:15.584Z,11
2022-10-22T01:40:17.341Z,10.9
2022-10-22T01:42:19.221Z,11
2022-10-22T01:46:26.427Z,11.1
2022-10-22T01:48:28.294Z,11.1
2022-10-22T01:52:31.944Z,11.1
2022-10-22T01:54:33.772Z,11.1
2022-10-22T01:56:35.547Z,11.1
2022-10-22T01:58:37.302Z,11.2
2022-10-22T02:00:42.622Z,11.3
2022-10-22T02:02:44.372Z,11.4
2022-10-22T02:04:46.102Z,11.3
2022-10-22T02:06:47.857Z,11.3
2022-10-22T02:08:49.698Z,11.3
2022-10-22T02:10:51.406Z,11.3
2022-10-22T02:12:53.158Z,11.1
2022-10-22T02:14:58.463Z,11.2
2022-10-22T02:17:00.206Z,11.1
2022-10-22T02:19:02.003Z,11
2022-10-22T02:22:06.390Z,10.9
2022-10-22T02:24:08.142Z,11
2022-10-22T02:26:09.930Z,10.9
2022-10-22T02:28:15.210Z,10.9
2022-10-22T02:36:22.341Z,10.7
2022-10-22T02:38:24.118Z,10.7
2022-10-22T02:40:25.917Z,10.6
2022-10-22T02:42:31.184Z,10.7
2022-10-22T02:44:32.966Z,10.7
2022-10-22T02:46:34.726Z,10.6
2022-10-22T02:48:36.545Z,10.7
2022-10-22T02:54:41.857Z,10.6
2022-10-22T03:00:50.760Z,10.5
2022-10-22T03:02:52.490Z,10.7
2022-10-22T03:04:54.278Z,10.8
2022-10-22T03:06:56.065Z,10.6
2022-10-22T03:08:57.860Z,10.7
2022-10-22T03:11:03.081Z,10.8
2022-10-22T03:13:04.876Z,10.8
2022-10-22T03:15:06.630Z,10.7
2022-10-22T03:18:11.136Z,10.8
2022-10-22T03:20:13.006Z,10.6
2022-10-22T03:24:20.189Z,10.7
2022-10-22T03:26:22.060Z,10.6
2022-10-22T03:28:23.906Z,10.7
2022-10-22T03:32:27.611Z,10.6
2022-10-22T03:34:29.481Z,10.6
2022-10-22T03:36:31.370Z,10.4
2022-10-22T03:38:36.787Z,10.5
2022-10-22T03:40:38.633Z,10.5
2022-10-22T03:42:40.487Z,10.6
2022-10-22T03:44:42.263Z,10.6
2022-10-22T03:46:43.974Z,10.5
2022-10-22T03:48:45.747Z,10.6
2022-10-22T03:50:47.487Z,10.6
2022-10-22T03:54:54.492Z,10.5
2022-10-22T03:56:56.342Z,10.6
2022-10-22T04:03:02.936Z,10.4
2022-10-22T04:05:28.736Z,10.3
2022-10-22T04:09:11.188Z,10.4
2022-10-22T04:11:12.937Z,10.3
2022-10-22T04:14:17.323Z,10.5
2022-10-22T04:16:19.085Z,10.5
2022-10-22T04:22:27.784Z,10.5
2022-10-22T04:24:29.523Z,10.4
2022-10-22T04:26:31.293Z,10.5
2022-10-22T04:28:33.063Z,10.6
2022-10-22T04:30:35.081Z,10.6
2022-10-22T04:32:36.595Z,10.6
2022-10-22T04:34:41.863Z,10.6
2022-10-22T04:36:43.654Z,10.6
2022-10-22T04:38:45.425Z,10.6
2022-10-22T04:40:47.289Z,10.5
2022-10-22T04:46:52.564Z,10.6
2022-10-22T04:48:58.003Z,10.6
2022-10-22T04:50:59.769Z,10.6
2022-10-22T04:53:01.627Z,10.6
2022-10-22T04:55:03.476Z,10.6
2022-10-22T04:59:07.239Z,10.6
2022-10-22T05:01:09.141Z,10.7
2022-10-22T05:03:14.529Z,10.6
2022-10-22T05:05:16.392Z,10.7
2022-10-22T05:07:18.231Z,10.7
2022-10-22T05:11:37.827Z,10.8
2022-10-22T05:13:39.672Z,10.7
2022-10-22T05:15:45.028Z,10.7
2022-10-22T05:19:48.638Z,10.8
2022-10-22T05:21:50.509Z,10.8
2022-10-22T05:23:52.277Z,10.7
2022-10-22T05:27:57.261Z,10.7
2022-10-22T05:34:04.671Z,10.6
2022-10-22T05:42:11.759Z,10.7
2022-10-22T05:44:17.032Z,10.7
2022-10-22T05:50:22.350Z,10.7
2022-10-22T05:54:25.900Z,10.9
2022-10-22T05:56:27.673Z,11
2022-10-22T06:00:34.867Z,11
2022-10-22T06:02:36.718Z,11
2022-10-22T06:03:39.463Z,11
2022-10-22T06:07:46.337Z,11.2
2022-10-22T06:11:56.480Z,11
2022-10-22T06:16:24.993Z,11.2
2022-10-22T06:17:58.977Z,11.2
2022-10-22T06:20:00.825Z,11.1
2022-10-22T06:22:02.532Z,11.2
2022-10-22T06:24:04.370Z,11.2
2022-10-22T06:28:11.539Z,11.3
2022-10-22T06:30:13.195Z,11.3
2022-10-22T06:32:14.991Z,11.4
2022-10-22T06:34:16.741Z,11.4
2022-10-22T06:48:32.607Z,12.1
2022-10-22T06:50:34.391Z,12.2
2022-10-22T06:52:36.149Z,12.3
2022-10-22T06:54:41.439Z,12.4
2022-10-22T06:56:43.181Z,12.4
2022-10-22T06:58:44.981Z,12.5
2022-10-22T07:01:49.523Z,12.4
2022-10-22T07:03:51.245Z,12.5
2022-10-22T07:05:53.024Z,12.5
2022-10-22T07:07:58.341Z,12.6
2022-10-22T07:10:00.149Z,12.6
2022-10-22T07:12:01.960Z,12.6
2022-10-22T07:14:03.735Z,12.7
2022-10-22T07:16:05.543Z,13.1
2022-10-22T07:18:07.358Z,13.2
2022-10-22T07:20:09.180Z,13.4
2022-10-22T07:22:14.432Z,13.6
2022-10-22T07:24:16.249Z,13.8
2022-10-22T07:26:18.065Z,14
2022-10-22T07:28:19.877Z,13.9
2022-10-22T07:30:21.691Z,14
2022-10-22T07:32:23.986Z,13.9
2022-10-22T07:34:25.315Z,14
2022-10-22T07:36:30.624Z,13.5
2022-10-22T07:40:34.243Z,13.3
2022-10-22T07:42:36.032Z,13.3
2022-10-22T07:46:39.650Z,13.6
2022-10-22T07:48:41.443Z,13.5
2022-10-22T07:50:46.746Z,13.6
2022-10-22T07:52:48.555Z,13.7
2022-10-22T07:55:53.021Z,13.6
2022-10-22T07:57:54.798Z,13.7
2022-10-22T07:59:56.626Z,13.8
2022-10-22T08:01:58.552Z,13.9
2022-10-22T08:04:03.708Z,14
2022-10-22T08:06:05.526Z,13.9
2022-10-22T08:08:07.360Z,14
2022-10-22T08:10:09.193Z,14.1
2022-10-22T08:12:10.990Z,14.1
2022-10-22T08:14:12.787Z,14.2
2022-10-22T08:16:14.610Z,14.1
2022-10-22T08:18:19.900Z,14.2
2022-10-22T08:20:21.711Z,14.3
2022-10-22T08:22:23.550Z,14.5
2022-10-22T08:24:25.348Z,14.4
2022-10-22T08:26:27.162Z,14.6
2022-10-22T08:28:28.964Z,14.6
2022-10-22T08:32:36.063Z,14.5
2022-10-22T08:34:37.907Z,14.4
2022-10-22T08:36:39.681Z,14.7
2022-10-22T08:38:41.491Z,14.7
2022-10-22T08:40:43.357Z,14.8
2022-10-22T08:42:45.108Z,14.7
2022-10-22T08:44:46.916Z,14.8
2022-10-22T08:46:52.218Z,14.8
2022-10-22T08:48:54.127Z,14.8
2022-10-22T08:50:55.851Z,14.8
2022-10-22T08:55:20.893Z,14.9
2022-10-22T08:57:22.747Z,14.8
2022-10-22T08:59:27.993Z,15.1
2022-10-22T09:01:29.807Z,15
2022-10-22T09:03:31.648Z,15.1
2022-10-22T09:05:33.461Z,15.1
2022-10-22T09:07:35.277Z,15.2
2022-10-22T09:13:44.192Z,15.3
2022-10-22T09:15:47.297Z,15.3
2022-10-22T09:21:51.484Z,15.4
2022-10-22T09:30:02.324Z,15.6
2022-10-22T09:34:05.914Z,15.6
2022-10-22T09:40:11.365Z,15.7
2022-10-22T09:47:25.984Z,15.8
2022-10-22T09:49:24.811Z,15.7
2022-10-22T09:51:26.673Z,15.6
2022-10-22T09:53:28.446Z,15.8
2022-10-22T09:55:33.734Z,15.8
2022-10-22T09:57:35.602Z,15.9
2022-10-22T09:59:37.389Z,16
2022-10-22T10:01:39.209Z,16.2
2022-10-22T10:03:41.053Z,16.3
2022-10-22T10:05:42.873Z,16.3
2022-10-22T10:07:44.953Z,16.3
2022-10-22T10:11:51.824Z,16.4
2022-10-22T10:17:57.284Z,16.9
2022-10-22T10:24:06.304Z,16.3
2022-10-22T10:26:08.114Z,16.2
2022-10-22T10:28:09.983Z,16.4
2022-10-22T10:30:11.823Z,16.5
2022-10-22T10:32:13.662Z,16.7
2022-10-22T10:34:15.493Z,16.8
2022-10-22T10:38:24.775Z,17
2022-10-22T10:40:24.476Z,16.9
2022-10-22T10:42:26.277Z,16.9
2022-10-22T10:43:28.920Z,16.7
2022-10-22T10:45:30.809Z,16.8
2022-10-22T10:47:32.647Z,16.7
2022-10-22T10:49:34.458Z,16.7
2022-10-22T10:51:39.763Z,17
2022-10-22T10:53:41.600Z,17.1
2022-10-22T10:55:43.438Z,17.8
2022-10-22T10:57:45.245Z,18
2022-10-22T11:12:01.542Z,18.1
2022-10-22T11:14:03.309Z,18.3
2022-10-22T11:16:05.133Z,18.5
2022-10-22T11:18:06.964Z,19.9
2022-10-22T11:24:15.969Z,20.7
2022-10-22T11:26:17.794Z,21.5
2022-10-22T11:28:19.608Z,20.9
2022-10-22T11:30:21.503Z,19.9
2022-10-22T11:32:23.268Z,20.9
2022-10-22T11:34:33.838Z,20.7
2022-10-22T11:38:34.196Z,20.8
2022-10-22T11:39:34.872Z,20.5
2022-10-22T11:41:36.685Z,21.1
2022-10-22T11:43:38.477Z,21
2022-10-22T11:45:40.317Z,21
2022-10-22T11:47:45.670Z,20.7
2022-10-22T11:49:47.440Z,20.5
2022-10-22T11:51:49.266Z,21.1
2022-10-22T11:53:51.080Z,21
2022-10-22T11:55:52.889Z,21
2022-10-22T11:57:54.713Z,22.3
2022-10-22T11:59:56.550Z,22.2
2022-10-22T12:02:01.831Z,20.4
2022-10-22T12:04:05.324Z,19.9
2022-10-22T12:10:11.490Z,22
2022-10-22T12:12:12.494Z,21.9
2022-10-22T12:16:27.294Z,23
2022-10-22T12:18:21.436Z,23.2
2022-10-22T12:20:23.242Z,21.5
2022-10-22T12:22:25.048Z,21.3
2022-10-22T12:24:26.970Z,20.1
2022-10-22T12:26:28.686Z,19.3
2022-10-22T12:28:30.525Z,18.5
2022-10-22T12:32:37.601Z,19
2022-10-22T12:34:39.454Z,19.9
2022-10-22T12:39:02.378Z,18.1
2022-10-22T12:45:11.319Z,18.3
2022-10-22T12:47:13.132Z,18
2022-10-22T12:53:18.572Z,18.2
2022-10-22T12:55:20.383Z,18.7
2022-10-22T12:59:27.522Z,18.4
2022-10-22T13:01:29.339Z,18.8
2022-10-22T13:03:31.166Z,18.9
2022-10-22T13:05:32.975Z,18.9
2022-10-22T13:07:34.826Z,18.5
2022-10-22T13:11:41.955Z,18.9
2022-10-22T13:21:51.060Z,20.5
2022-10-22T13:23:53.152Z,20
2022-10-22T13:30:01.857Z,19.7
2022-10-22T13:31:04.518Z,19.3
2022-10-22T13:35:08.210Z,19.4
2022-10-22T13:37:09.983Z,19.4
2022-10-22T13:41:17.115Z,19.2
2022-10-22T13:47:22.566Z,19
2022-10-22T13:49:24.400Z,18.9
2022-10-22T13:51:26.221Z,18.6
2022-10-22T13:53:31.545Z,18.9
2022-10-22T13:55:33.354Z,18.8
2022-10-22T13:57:35.183Z,18.9
2022-10-22T13:59:37.004Z,18.6
2022-10-22T14:01:38.865Z,18.6
2022-10-22T14:05:42.484Z,18
2022-10-22T14:07:47.796Z,17.8
2022-10-22T14:09:49.592Z,17.7
2022-10-22T14:11:51.437Z,17.6
2022-10-22T14:15:55.088Z,17.6
2022-10-22T14:17:56.933Z,17.4
2022-10-22T14:19:58.866Z,17.4
2022-10-22T14:22:04.039Z,17.6
2022-10-22T14:24:08.243Z,17.8
2022-10-22T14:26:07.668Z,18.1
2022-10-22T14:29:12.227Z,18.2
2022-10-22T14:31:13.980Z,18.3
2022-10-22T14:33:15.808Z,18.6
2022-10-22T14:35:21.424Z,18.6
2022-10-22T14:37:23.082Z,18.5
2022-10-22T14:39:24.901Z,18.3
2022-10-22T14:41:26.716Z,18.2
2022-10-22T14:43:28.537Z,18.2
2022-10-22T14:45:30.363Z,18.1
2022-10-22T14:47:32.207Z,18.1
2022-10-22T14:51:39.318Z,18.1
2022-10-22T14:53:41.164Z,18
2022-10-22T14:55:42.966Z,18.1
2022-10-22T14:57:45.046Z,18.1
2022-10-22T14:59:46.623Z,18
2022-10-22T15:01:48.458Z,17.8
2022-10-22T15:05:55.608Z,17.7
2022-10-22T15:07:57.422Z,17.6
2022-10-22T15:14:02.906Z,17.3
2022-10-22T15:16:04.742Z,17.2
2022-10-22T15:18:10.057Z,17.3
2022-10-22T15:20:11.877Z,17.3
2022-10-22T15:22:13.729Z,17.3
2022-10-22T15:23:16.357Z,17.2
2022-10-22T15:25:18.185Z,17.1
2022-10-22T15:29:21.840Z,16.8
2022-10-22T15:31:27.162Z,16.6
2022-10-22T15:33:28.997Z,16.6
2022-10-22T15:35:30.837Z,16.6
2022-10-22T15:39:34.488Z,16.4
2022-10-22T15:41:36.319Z,16.4
2022-10-22T15:43:38.135Z,16.5
2022-10-22T15:45:43.456Z,16.5
2022-10-22T15:47:47.450Z,16.4
2022-10-22T15:49:47.106Z,16.3
2022-10-22T15:51:49.007Z,16.3
2022-10-22T15:53:50.805Z,16.3
2022-10-22T15:55:52.651Z,16.2
2022-10-22T15:57:54.482Z,16.1
2022-10-22T15:59:59.803Z,15.8
2022-10-22T16:02:01.701Z,15.8
2022-10-22T16:04:03.464Z,15.7
2022-10-22T16:06:05.283Z,15.5
2022-10-22T16:08:07.126Z,15.4
2022-10-22T16:10:08.947Z,15.3
2022-10-22T16:12:12.210Z,15.2
2022-10-22T16:14:16.065Z,15
2022-10-22T16:16:17.894Z,15
2022-10-22T16:18:19.691Z,14.9
2022-10-22T16:26:46.408Z,14.1
2022-10-22T16:30:52.859Z,13.9
2022-10-22T16:32:51.893Z,13.8
2022-10-22T16:34:53.688Z,13.7
2022-10-22T16:36:55.518Z,13.7
2022-10-22T16:38:57.350Z,13.6
2022-10-22T16:41:02.641Z,13.5
2022-10-22T16:43:04.454Z,13.5
2022-10-22T16:45:06.294Z,13.3
2022-10-22T16:47:08.079Z,13.1
2022-10-22T16:49:09.916Z,13.1
2022-10-22T16:51:11.727Z,13
2022-10-22T16:53:13.533Z,12.9
2022-10-22T16:55:18.852Z,12.8
2022-10-22T16:59:22.471Z,12.7
2022-10-22T17:01:24.317Z,12.6
2022-10-22T17:03:28.307Z,12.6
2022-10-22T17:05:27.889Z,12.7
2022-10-22T17:07:29.685Z,12.6
2022-10-22T17:09:34.980Z,12.5
2022-10-22T17:11:38.133Z,12.5
2022-10-22T17:13:38.580Z,12.4
2022-10-22T17:14:41.212Z,12.3
2022-10-22T17:16:43.050Z,12.3
2022-10-22T17:20:46.647Z,12.2
2022-10-22T17:28:57.399Z,11.9
2022-10-22T17:30:59.195Z,12
2022-10-22T17:35:02.813Z,12.1
2022-10-22T17:37:08.086Z,12.1
2022-10-22T17:39:09.890Z,11.9
2022-10-22T17:43:13.515Z,11.8
2022-10-22T17:47:17.116Z,11.8
2022-10-22T17:49:18.924Z,11.7
2022-10-22T17:51:24.219Z,11.6
2022-10-22T17:53:26.021Z,11.6
2022-10-22T18:10:48.177Z,11.5
2022-10-22T18:12:49.957Z,11.5
2022-10-22T18:14:51.768Z,11.4
2022-10-22T18:16:53.672Z,11.4
2022-10-22T18:18:58.821Z,11.3
2022-10-22T18:21:00.637Z,11.3
2022-10-22T18:23:02.406Z,11.3
2022-10-22T18:25:04.221Z,11.4
2022-10-22T18:27:06.145Z,11.4
2022-10-22T18:31:09.542Z,11.4
2022-10-22T18:37:18.353Z,11.3
2022-10-22T18:39:20.148Z,11.3
2022-10-22T18:41:21.911Z,11.2
2022-10-22T18:43:23.691Z,11.3
2022-10-22T18:49:32.484Z,11.3
2022-10-22T18:51:34.247Z,11.3
2022-10-22T18:57:39.882Z,11.2
2022-10-22T18:59:41.438Z,11.1
2022-10-22T19:05:50.278Z,11.1
2022-10-22T19:06:52.903Z,11.1
2022-10-22T19:08:54.731Z,11.1
2022-10-22T19:10:56.487Z,11
2022-10-22T19:12:58.422Z,11
2022-10-22T19:15:03.640Z,11
2022-10-22T19:17:05.511Z,11
2022-10-22T19:19:07.409Z,11
2022-10-22T19:21:09.297Z,11
2022-10-22T19:23:11.146Z,11
2022-10-22T19:25:13.015Z,11.1
2022-10-22T19:27:14.899Z,11.1
2022-10-22T19:29:20.270Z,11.1
2022-10-22T19:31:22.148Z,11
2022-10-22T19:33:24.040Z,11
2022-10-22T19:35:25.866Z,10.9
2022-10-22T19:37:27.622Z,10.8
2022-10-22T19:39:29.545Z,10.9
2022-10-22T19:41:31.373Z,10.9
2022-10-22T19:43:36.986Z,10.9
2022-10-22T19:45:38.467Z,10.9
2022-10-22T19:47:40.239Z,10.9
2022-10-22T19:49:41.993Z,10.9
2022-10-22T19:51:43.800Z,10.9
2022-10-22T19:55:47.375Z,10.9
2022-10-22T19:57:52.608Z,10.8
2022-10-22T19:59:54.375Z,10.7
2022-10-22T20:01:56.142Z,10.8
2022-10-22T20:04:19.932Z,10.8
2022-10-22T20:06:21.683Z,10.9
2022-10-22T20:08:23.510Z,10.8
2022-10-22T20:10:28.738Z,10.8
2022-10-22T20:12:30.493Z,10.7
2022-10-22T20:14:32.324Z,10.8
2022-10-22T20:16:34.043Z,10.8
2022-10-22T20:18:35.808Z,10.7
2022-10-22T20:20:37.578Z,10.7
2022-10-22T20:22:39.587Z,10.6
2022-10-22T20:26:46.448Z,10.6
2022-10-22T20:28:48.318Z,10.5
2022-10-22T20:30:50.064Z,10.5
2022-10-22T20:32:51.853Z,10.5
2022-10-22T20:36:55.393Z,10.5
2022-10-22T20:39:00.872Z,10.5
2022-10-22T20:41:02.739Z,10.5
2022-10-22T20:43:04.582Z,10.5
2022-10-22T20:45:06.433Z,10.5
2022-10-22T20:47:08.201Z,10.5
2022-10-22T20:49:09.978Z,10.4
2022-10-22T20:51:11.771Z,10.4
2022-10-22T20:53:17.044Z,10.4
2022-10-22T20:55:18.788Z,10.3
2022-10-22T20:57:20.540Z,10.4
2022-10-22T20:58:24.642Z,10.4
2022-10-22T21:00:25.053Z,10.3
2022-10-22T21:02:26.930Z,10.2
2022-10-22T21:04:28.863Z,10.4
2022-10-22T21:06:34.140Z,10.5
2022-10-22T21:08:36.044Z,10.5
2022-10-22T21:10:37.830Z,10.3
2022-10-22T21:14:41.558Z,10.4
2022-10-22T21:16:43.383Z,10.4
2022-10-22T21:18:45.276Z,10.4
2022-10-22T21:20:50.712Z,10.1
2022-10-22T21:22:52.571Z,10.1
2022-10-22T21:24:54.444Z,10.2
2022-10-22T21:26:56.293Z,10.3
2022-10-22T21:28:58.123Z,10.3
2022-10-22T21:31:00.006Z,10.3
2022-10-22T21:33:01.864Z,10.2
2022-10-22T21:35:07.311Z,10.2
2022-10-22T21:37:09.150Z,10.3
2022-10-22T21:39:11.009Z,10.3
2022-10-22T21:41:12.880Z,10.4
2022-10-22T21:43:14.701Z,10.4
2022-10-22T21:45:20.025Z,10.4
2022-10-22T21:47:18.416Z,10.4
2022-10-22T21:49:23.770Z,10.4
2022-10-22T21:51:25.536Z,10.4
2022-10-22T21:53:27.292Z,10.3
2022-10-22T21:54:30.002Z,10.5
2022-10-22T21:56:31.763Z,10.5
2022-10-22T21:58:33.522Z,10.4
2022-10-22T22:00:35.276Z,10.5
2022-10-22T22:04:42.393Z,10.5
2022-10-22T22:06:44.225Z,10.4
2022-10-22T22:08:46.170Z,10.4
2022-10-22T22:10:47.848Z,10.5
2022-10-22T22:12:49.709Z,10.5
2022-10-22T22:14:51.479Z,10.5
2022-10-22T22:16:56.912Z,10.5
2022-10-22T22:21:00.516Z,10.4
2022-10-22T22:25:04.367Z,10.5
2022-10-22T22:27:06.115Z,10.5
2022-10-22T22:31:13.215Z,10.4
2022-10-22T22:35:16.910Z,10.4
2022-10-22T22:37:18.799Z,10.4
2022-10-22T22:39:20.640Z,10.5
2022-10-22T22:41:22.513Z,10.4
2022-10-22T22:43:24.364Z,10.3
2022-10-22T22:45:29.799Z,10.4
2022-10-22T22:47:31.653Z,10.4
2022-10-22T22:49:33.490Z,10.5
2022-10-22T22:50:36.243Z,10.5
2022-10-22T22:52:37.995Z,10.5
2022-10-22T23:00:48.997Z,10.3
2022-10-22T23:02:50.854Z,10.2
2022-10-22T23:04:52.693Z,10.3
2022-10-22T23:06:54.579Z,10.2
2022-10-22T23:08:56.543Z,10.3
2022-10-22T23:15:05.299Z,10.5
2022-10-22T23:17:07.070Z,10.5
2022-10-22T23:19:08.843Z,10.5
2022-10-22T23:21:10.684Z,10.6
2022-10-22T23:23:12.411Z,10.6
2022-10-22T23:25:14.180Z,10.6
2022-10-22T23:27:19.451Z,10.6
2022-10-22T23:29:21.230Z,10.6
2022-10-22T23:31:23.006Z,10.6
2022-10-22T23:33:24.816Z,10.7
2022-10-22T23:35:26.567Z,10.7
2022-10-22T23:37:28.374Z,10.6
2022-10-22T23:39:30.175Z,10.6
2022-10-22T23:41:35.427Z,10.6
2022-10-22T23:43:37.204Z,10.6
2022-10-22T23:45:38.976Z,10.5
2022-10-22T23:48:01.999Z,10.6
2022-10-22T23:50:03.860Z,10.7
2022-10-22T23:52:05.532Z,10.8
2022-10-22T23:54:10.791Z,10.7
2022-10-22T23:56:12.594Z,10.7
